Portada
METAR-TAF:

METAR-TAF

Aeroports :

Hua Hin, Tailàndia

latitud: 12-35N, longitud: 099-57E, altitud: 5 m

Observació

L'informe es va fer fa 1 hora i 29 minuts, a les 11:00 UTC
Vent 12 kt del Sud/Sud-Est
Temperatura 31°C
Humitat 75%
Pressió 1003 hPa
Visibilitat: 9000 m
Escasses núvols a una alçada de 3000 ft

METAR: VTPH 141100Z 16012KT 9000 FEW030 31/26 Q1003 NOSIG

Hora: 19:29 (12:29 UTC)

Pronòstic

L'informe es va fer fa 1 hora i 29 minuts, a les 11:00 UTC
Pronòstic vàlid del 14 a les 12 UTC al 15 a les 12 UTC
Vent 5 kt del Sud/Sud-Est
Visibilitat 10 km o més
Escasses núvols a una alçada de 2000 ft

TAF: VTPH 141100Z 1412/1512 15005KT 9999 FEW020

Observacions i pronòstics meteorològics de més de 4000 aeroports (METAR i TAF).

Les estacions disponibles són els punts grocs i vermells al mapa.

Posi el ratolí al punt desitjat per veure el nom de l'estació.

Feu clic per veure les observacions i els pronòstics meteorològics.

Per canviar el mapa: feu clic els botons verds amb una creu de color negre per apropar; al botó verd amb un guió per allunyar la imatge; o en les fletxes verdes per a mapes adjacents.


METAR-TAF: